createdAt,value
2022-11-12T00:01:37.391Z,12.00
2022-11-12T00:04:04.903Z,11.23
2022-11-12T00:06:32.314Z,12.95
2022-11-12T00:09:00.980Z,11.32
2022-11-12T00:11:28.291Z,11.93
2022-11-12T00:13:55.612Z,10.60
2022-11-12T00:16:22.960Z,10.15
2022-11-12T00:18:50.261Z,11.20
2022-11-12T00:21:17.550Z,10.40
2022-11-12T00:23:44.901Z,11.15
2022-11-12T00:26:13.560Z,11.70
2022-11-12T00:28:40.837Z,9.73
2022-11-12T00:31:09.077Z,9.77
2022-11-12T00:33:39.747Z,11.98
2022-11-12T00:36:07.210Z,10.20
2022-11-12T00:38:34.548Z,10.32
2022-11-12T00:41:01.922Z,10.80
2022-11-12T00:43:30.613Z,10.38
2022-11-12T00:45:57.982Z,11.60
2022-11-12T00:48:25.777Z,11.57
2022-11-12T00:50:59.631Z,11.18
2022-11-12T00:53:27.006Z,13.20
2022-11-12T00:55:54.327Z,12.30
2022-11-12T00:58:21.698Z,12.63
2022-11-12T01:00:50.376Z,14.15
2022-11-12T01:03:17.839Z,14.48
2022-11-12T01:05:45.143Z,14.48
2022-11-12T01:08:12.460Z,14.23
2022-11-12T01:10:39.809Z,14.13
2022-11-12T01:13:07.152Z,14.73
2022-11-12T01:15:34.471Z,14.60
2022-11-12T01:18:03.175Z,15.68
2022-11-12T01:20:30.494Z,15.82
2022-11-12T01:22:57.800Z,15.70
2022-11-12T01:25:25.123Z,15.38
2022-11-12T01:27:53.381Z,15.25
2022-11-12T01:30:20.755Z,15.38
2022-11-12T01:32:48.318Z,15.27
2022-11-12T01:35:17.002Z,15.75
2022-11-12T01:37:44.307Z,15.70
2022-11-12T01:40:11.982Z,15.15
2022-11-12T01:42:39.433Z,15.05
2022-11-12T01:45:15.778Z,16.25
2022-11-12T01:47:43.308Z,17.15
2022-11-12T01:50:15.325Z,17.73
2022-11-12T01:52:45.943Z,16.25
2022-11-12T01:55:15.047Z,17.23
2022-11-12T01:57:43.256Z,15.88
2022-11-12T02:00:12.035Z,17.48
2022-11-12T02:02:40.092Z,17.23
2022-11-12T02:05:09.219Z,16.38
2022-11-12T02:07:37.792Z,17.75
2022-11-12T02:10:07.283Z,16.83
2022-11-12T02:12:52.604Z,18.42
2022-11-12T02:15:20.028Z,18.00
2022-11-12T02:17:47.317Z,19.02
2022-11-12T02:20:15.483Z,18.08
2022-11-12T02:22:44.216Z,17.95
2022-11-12T02:25:13.632Z,18.55
2022-11-12T02:27:41.074Z,19.08
2022-11-12T02:30:08.636Z,18.80
2022-11-12T02:32:35.964Z,19.00
2022-11-12T02:35:03.360Z,19.48
2022-11-12T02:37:30.666Z,18.80
2022-11-12T02:39:59.651Z,18.98
2022-11-12T02:42:26.969Z,19.17
2022-11-12T02:44:54.511Z,18.00
2022-11-12T02:47:21.831Z,20.23
2022-11-12T02:49:49.190Z,19.25
2022-11-12T02:52:16.492Z,18.98
2022-11-12T02:54:43.795Z,18.95
2022-11-12T02:57:12.422Z,18.50
2022-11-12T02:59:39.712Z,18.88
2022-11-12T03:02:07.020Z,19.00
2022-11-12T03:04:34.274Z,17.80
2022-11-12T03:07:01.671Z,17.73
2022-11-12T03:09:29.046Z,17.80
2022-11-12T03:11:56.350Z,18.27
2022-11-12T03:14:25.221Z,18.92
2022-11-12T03:16:52.557Z,18.23
2022-11-12T03:19:19.884Z,18.05
2022-11-12T03:21:47.293Z,18.35
2022-11-12T03:24:14.654Z,18.17
2022-11-12T03:26:41.993Z,17.00
2022-11-12T03:29:09.312Z,17.52
2022-11-12T03:31:38.045Z,17.48
2022-11-12T03:34:05.352Z,17.08
2022-11-12T03:36:32.652Z,18.15
2022-11-12T03:39:00.054Z,18.42
2022-11-12T03:41:27.375Z,18.52
2022-11-12T03:43:54.674Z,19.15
2022-11-12T03:46:21.963Z,19.67
2022-11-12T03:48:50.611Z,18.75
2022-11-12T03:51:18.939Z,19.30
2022-11-12T03:53:46.245Z,20.88
2022-11-12T03:56:13.587Z,20.27
2022-11-12T03:58:41.212Z,20.02
2022-11-12T04:01:08.531Z,21.52
2022-11-12T04:03:35.873Z,20.60
2022-11-12T04:06:22.060Z,19.98
2022-11-12T04:08:49.346Z,20.00
2022-11-12T04:11:17.203Z,19.60
2022-11-12T04:13:47.376Z,20.13
2022-11-12T04:16:33.115Z,19.42
2022-11-12T04:19:18.853Z,19.75
2022-11-12T04:21:51.662Z,19.63
2022-11-12T04:24:37.580Z,18.75
2022-11-12T04:27:05.376Z,20.10
2022-11-12T04:29:50.436Z,18.10
2022-11-12T04:32:17.744Z,21.55
2022-11-12T04:34:45.270Z,20.98
2022-11-12T04:37:14.053Z,21.58
2022-11-12T04:39:41.372Z,21.40
2022-11-12T04:42:27.075Z,21.63
2022-11-12T04:45:04.874Z,21.77
2022-11-12T04:47:33.789Z,21.73
2022-11-12T04:50:01.179Z,22.23
2022-11-12T04:52:30.281Z,21.33
2022-11-12T04:54:57.864Z,20.90
2022-11-12T04:57:25.225Z,21.20
2022-11-12T04:59:52.719Z,20.52
2022-11-12T05:02:20.029Z,19.63
2022-11-12T05:04:47.361Z,22.67
2022-11-12T05:07:15.043Z,22.23
2022-11-12T05:09:43.806Z,21.65
2022-11-12T05:12:11.482Z,20.08
2022-11-12T05:14:38.775Z,20.23
2022-11-12T05:17:06.512Z,21.33
2022-11-12T05:19:34.936Z,21.77
2022-11-12T05:22:17.475Z,21.27
2022-11-12T05:24:56.012Z,22.90
2022-11-12T05:27:23.276Z,21.20
2022-11-12T05:29:50.645Z,22.13
2022-11-12T05:32:18.585Z,21.45
2022-11-12T05:34:45.931Z,22.20
2022-11-12T05:37:14.076Z,21.88
2022-11-12T05:39:41.535Z,21.75
2022-11-12T05:42:14.283Z,21.50
2022-11-12T05:44:41.895Z,21.85
2022-11-12T05:47:09.216Z,22.17
2022-11-12T05:49:36.506Z,22.20
2022-11-12T05:52:03.815Z,22.50
2022-11-12T05:54:31.149Z,21.85
2022-11-12T05:56:58.439Z,21.10
2022-11-12T05:59:27.126Z,21.67
2022-11-12T06:01:54.822Z,23.35
2022-11-12T06:04:23.117Z,20.77
2022-11-12T06:06:50.507Z,20.70
2022-11-12T06:09:17.961Z,21.33
2022-11-12T06:11:45.350Z,21.98
2022-11-12T06:14:12.924Z,22.42
2022-11-12T06:16:41.617Z,24.85
2022-11-12T06:19:08.895Z,24.55
2022-11-12T06:21:36.181Z,24.17
2022-11-12T06:24:03.965Z,24.30
2022-11-12T06:26:31.246Z,23.13
2022-11-12T06:29:00.980Z,25.60
2022-11-12T06:31:28.288Z,24.95
2022-11-12T06:33:56.984Z,24.83
2022-11-12T06:36:24.453Z,26.15
2022-11-12T06:38:51.802Z,24.85
2022-11-12T06:41:19.134Z,23.40
2022-11-12T06:43:46.411Z,24.38
2022-11-12T06:46:15.019Z,24.50
2022-11-12T06:48:42.466Z,25.98
2022-11-12T06:51:12.599Z,26.75
2022-11-12T06:53:39.954Z,25.13
2022-11-12T06:56:07.822Z,26.02
2022-11-12T06:58:35.555Z,25.83
2022-11-12T07:01:11.213Z,22.63
2022-11-12T07:03:39.539Z,23.55
2022-11-12T07:06:07.944Z,24.35
2022-11-12T07:08:36.789Z,22.27
2022-11-12T07:11:04.156Z,23.27
2022-11-12T07:13:32.420Z,22.35
2022-11-12T07:16:00.013Z,23.60
2022-11-12T07:18:28.070Z,23.92
2022-11-12T07:20:58.447Z,24.80
2022-11-12T07:23:26.140Z,26.38
2022-11-12T07:25:59.032Z,25.80
2022-11-12T07:28:26.902Z,25.25
2022-11-12T07:30:58.384Z,24.88
2022-11-12T07:33:25.739Z,32.85
2022-11-12T07:35:59.844Z,27.95
2022-11-12T07:38:27.926Z,26.65
2022-11-12T07:41:01.156Z,26.67
2022-11-12T07:43:28.587Z,26.08
2022-11-12T07:45:58.683Z,26.38
2022-11-12T07:48:26.464Z,25.92
2022-11-12T07:50:54.001Z,26.23
2022-11-12T07:53:21.307Z,24.73
2022-11-12T07:55:54.043Z,23.73
2022-11-12T07:58:22.812Z,23.00
2022-11-12T08:00:50.440Z,23.48
2022-11-12T08:03:17.858Z,21.45
2022-11-12T08:05:45.355Z,20.23
2022-11-12T08:08:12.723Z,18.90
2022-11-12T08:10:40.275Z,19.60
2022-11-12T08:13:07.599Z,17.05
2022-11-12T08:15:36.306Z,16.30
2022-11-12T08:18:03.600Z,15.13
2022-11-12T08:20:30.923Z,13.18
2022-11-12T08:23:00.363Z,13.75
2022-11-12T08:25:27.726Z,13.50
2022-11-12T08:27:57.028Z,12.45
2022-11-12T08:30:24.368Z,10.48
2022-11-12T08:32:57.683Z,11.20
2022-11-12T08:35:25.509Z,11.55
2022-11-12T08:37:52.843Z,10.23
2022-11-12T08:40:20.153Z,10.60
2022-11-12T08:42:47.472Z,10.20
2022-11-12T08:45:14.897Z,7.50
2022-11-12T08:47:42.221Z,8.70
2022-11-12T08:50:11.134Z,9.07
2022-11-12T08:52:38.433Z,8.00
2022-11-12T08:55:06.367Z,8.65
2022-11-12T08:57:33.691Z,8.68
2022-11-12T09:00:01.022Z,8.18
2022-11-12T09:02:28.313Z,7.75
2022-11-12T09:04:55.593Z,7.63
2022-11-12T09:10:11.558Z,7.47
2022-11-12T09:12:38.891Z,7.28
2022-11-12T09:15:36.323Z,7.32
2022-11-12T09:17:56.115Z,7.22
2022-11-12T09:20:23.539Z,7.13
2022-11-12T09:22:52.226Z,7.85
2022-11-12T09:25:19.597Z,7.55
2022-11-12T09:27:48.645Z,7.95
2022-11-12T09:30:16.364Z,8.07
2022-11-12T09:32:43.747Z,9.10
2022-11-12T09:35:11.446Z,8.73
2022-11-12T09:37:39.255Z,7.80
2022-11-12T09:40:08.866Z,7.22
2022-11-12T09:42:37.334Z,7.05
2022-11-12T09:45:06.746Z,6.95
2022-11-12T09:47:36.878Z,6.68
2022-11-12T09:50:11.466Z,6.82
2022-11-12T09:52:41.370Z,7.05
2022-11-12T09:55:13.949Z,6.82
2022-11-12T09:57:41.272Z,7.25
2022-11-12T10:00:14.858Z,7.22
2022-11-12T10:02:43.945Z,6.20
2022-11-12T10:05:23.166Z,7.45
2022-11-12T10:07:56.470Z,6.45
2022-11-12T10:10:33.571Z,6.53
2022-11-12T10:13:10.074Z,6.53
2022-11-12T10:15:56.588Z,6.20
2022-11-12T10:18:29.877Z,7.10
2022-11-12T10:21:00.217Z,5.72
2022-11-12T10:23:29.056Z,6.07
2022-11-12T10:25:58.980Z,6.18
2022-11-12T10:28:30.118Z,5.65
2022-11-12T10:31:01.798Z,6.53
2022-11-12T10:33:32.765Z,5.90
2022-11-12T10:36:12.271Z,5.90
2022-11-12T10:38:39.852Z,5.80
2022-11-12T10:41:20.268Z,6.65
2022-11-12T10:43:54.009Z,6.28
2022-11-12T10:46:22.384Z,6.78
2022-11-12T10:48:54.854Z,5.82
2022-11-12T10:51:26.775Z,6.10
2022-11-12T10:53:54.091Z,6.65
2022-11-12T10:56:27.115Z,5.93
2022-11-12T10:59:09.602Z,6.50
2022-11-12T11:01:39.444Z,6.82
2022-11-12T11:04:17.170Z,6.32
2022-11-12T11:06:44.915Z,6.40
2022-11-12T11:09:16.808Z,5.63
2022-11-12T11:11:50.945Z,6.85
2022-11-12T11:14:25.331Z,7.00
2022-11-12T11:16:53.721Z,5.72
2022-11-12T11:19:21.513Z,6.43
2022-11-12T11:21:58.571Z,6.88
2022-11-12T11:24:38.087Z,6.93
2022-11-12T11:27:11.988Z,6.75
2022-11-12T11:29:45.266Z,6.75
2022-11-12T11:32:18.167Z,6.50
2022-11-12T11:34:51.680Z,6.00
2022-11-12T11:37:25.516Z,6.78
2022-11-12T11:40:00.010Z,6.32
2022-11-12T11:42:39.790Z,6.82
2022-11-12T11:45:13.512Z,6.68
2022-11-12T11:48:00.696Z,6.32
2022-11-12T11:50:29.259Z,6.47
2022-11-12T11:53:02.810Z,6.38
2022-11-12T11:55:35.485Z,6.40
2022-11-12T11:58:12.885Z,5.65
2022-11-12T12:00:46.427Z,6.63
2022-11-12T12:03:19.103Z,6.45
2022-11-12T12:05:51.377Z,5.60
2022-11-12T12:08:23.623Z,5.90
2022-11-12T12:11:12.011Z,5.95
2022-11-12T12:13:46.914Z,6.28
2022-11-12T12:18:46.859Z,6.03
2022-11-12T12:21:16.402Z,5.93
2022-11-12T12:23:47.453Z,5.88
2022-11-12T12:26:16.695Z,6.20
2022-11-12T12:28:47.991Z,6.00
2022-11-12T12:31:17.479Z,6.68
2022-11-12T12:33:48.037Z,6.35
2022-11-12T12:36:16.685Z,6.18
2022-11-12T12:38:45.544Z,6.00
2022-11-12T12:41:15.870Z,5.78
2022-11-12T12:43:46.372Z,6.47
2022-11-12T12:46:16.337Z,6.38
2022-11-12T12:48:44.736Z,6.38
2022-11-12T12:51:12.570Z,6.20
2022-11-12T12:53:40.536Z,6.78
2022-11-12T12:56:28.084Z,6.90
2022-11-12T12:58:56.211Z,6.00
2022-11-12T13:01:33.116Z,6.05
2022-11-12T13:04:02.176Z,6.20
2022-11-12T13:06:32.061Z,6.13
2022-11-12T13:09:04.016Z,6.25
2022-11-12T13:12:08.830Z,6.05
2022-11-12T13:14:47.275Z,5.93
2022-11-12T13:17:35.919Z,6.32
2022-11-12T13:20:33.681Z,6.60
2022-11-12T13:23:01.008Z,6.15
2022-11-12T13:25:29.750Z,6.80
2022-11-12T13:28:07.077Z,6.70
2022-11-12T13:30:52.840Z,6.28
2022-11-12T13:33:25.646Z,5.82
2022-11-12T13:35:52.974Z,6.53
2022-11-12T13:38:20.453Z,6.00
2022-11-12T13:40:51.138Z,6.70
2022-11-12T13:43:21.899Z,7.18
2022-11-12T13:45:50.738Z,6.45
2022-11-12T13:48:21.236Z,6.20
2022-11-12T13:50:52.927Z,7.32
2022-11-12T13:53:22.509Z,6.85
2022-11-12T13:55:50.582Z,6.95
2022-11-12T13:58:20.283Z,6.53
2022-11-12T14:00:52.269Z,6.30
2022-11-12T14:03:20.247Z,6.32
2022-11-12T14:05:48.502Z,6.13
2022-11-12T14:08:30.712Z,6.47
2022-11-12T14:11:05.316Z,6.40
2022-11-12T14:13:44.621Z,5.88
2022-11-12T14:16:19.050Z,6.00
2022-11-12T14:18:56.067Z,6.38
2022-11-12T14:21:23.420Z,6.07
2022-11-12T14:23:50.945Z,5.68
2022-11-12T14:26:33.173Z,5.90
2022-11-12T14:29:02.113Z,6.03
2022-11-12T14:31:29.435Z,5.45
2022-11-12T14:33:56.790Z,5.43
2022-11-12T14:36:24.519Z,4.97
2022-11-12T14:38:53.202Z,5.75
2022-11-12T14:41:22.229Z,5.50
2022-11-12T14:44:07.456Z,5.47
2022-11-12T14:46:40.248Z,5.78
2022-11-12T14:49:13.902Z,5.05
2022-11-12T14:51:43.309Z,5.13
2022-11-12T14:54:15.470Z,5.53
2022-11-12T14:56:43.838Z,5.88
2022-11-12T14:59:11.513Z,5.60
2022-11-12T15:04:36.026Z,5.32
2022-11-12T15:07:03.414Z,5.63
2022-11-12T15:09:35.021Z,5.22
2022-11-12T15:12:03.048Z,5.20
2022-11-12T15:14:30.427Z,5.22
2022-11-12T15:17:00.470Z,5.90
2022-11-12T15:19:28.254Z,4.75
2022-11-12T15:21:57.213Z,4.75
2022-11-12T15:24:29.920Z,5.25
2022-11-12T15:26:58.164Z,4.90
2022-11-12T15:29:26.853Z,4.85
2022-11-12T15:31:55.426Z,4.88
2022-11-12T15:34:28.394Z,5.03
2022-11-12T15:36:56.166Z,4.65
2022-11-12T15:39:24.524Z,4.68
2022-11-12T15:41:57.533Z,4.50
2022-11-12T15:44:25.196Z,4.32
2022-11-12T15:46:53.005Z,4.40
2022-11-12T15:49:20.409Z,4.80
2022-11-12T15:51:49.025Z,4.90
2022-11-12T15:54:16.330Z,5.05
2022-11-12T15:56:43.795Z,4.93
2022-11-12T15:59:13.126Z,5.20
2022-11-12T16:01:40.456Z,4.72
2022-11-12T16:04:07.738Z,5.30
2022-11-12T16:06:35.155Z,4.50
2022-11-12T16:09:03.916Z,4.90
2022-11-12T16:11:36.916Z,6.95
2022-11-12T16:14:05.480Z,6.82
2022-11-12T16:16:33.080Z,7.85
2022-11-12T16:19:00.406Z,5.15
2022-11-12T16:21:27.719Z,5.18
2022-11-12T16:23:55.071Z,4.63
2022-11-12T16:26:27.319Z,5.28
2022-11-12T16:28:54.657Z,5.20
2022-11-12T16:31:22.659Z,5.65
2022-11-12T16:33:50.027Z,5.35
2022-11-12T16:36:17.767Z,5.00
2022-11-12T16:38:45.938Z,5.60
2022-11-12T16:41:13.871Z,5.35
2022-11-12T16:43:42.832Z,5.20
2022-11-12T16:46:14.990Z,5.70
2022-11-12T16:48:42.303Z,5.72
2022-11-12T16:51:14.604Z,5.70
2022-11-12T16:53:42.043Z,6.72
2022-11-12T16:56:12.580Z,5.50
2022-11-12T16:58:41.130Z,6.60
2022-11-12T17:01:11.923Z,6.47
2022-11-12T17:03:39.311Z,6.07
2022-11-12T17:06:06.814Z,6.20
2022-11-12T17:08:34.315Z,6.03
2022-11-12T17:11:06.658Z,6.13
2022-11-12T17:13:34.011Z,6.15
2022-11-12T17:16:01.301Z,6.00
2022-11-12T17:18:29.920Z,5.93
2022-11-12T17:20:57.335Z,6.03
2022-11-12T17:23:24.991Z,6.85
2022-11-12T17:26:00.336Z,6.35
2022-11-12T17:28:28.693Z,7.28
2022-11-12T17:31:02.733Z,7.68
2022-11-12T17:33:31.436Z,6.47
2022-11-12T17:36:01.757Z,6.13
2022-11-12T17:38:29.794Z,6.47
2022-11-12T17:40:57.560Z,6.20
2022-11-12T17:43:25.765Z,6.00
2022-11-12T17:45:55.769Z,6.55
2022-11-12T17:48:24.511Z,5.95
2022-11-12T17:50:55.312Z,5.82
2022-11-12T17:53:23.442Z,6.43
2022-11-12T17:55:57.142Z,5.85
2022-11-12T17:58:24.559Z,6.10
2022-11-12T18:00:53.370Z,6.63
2022-11-12T18:03:22.046Z,5.95
2022-11-12T18:05:58.036Z,6.38
2022-11-12T18:08:25.547Z,5.32
2022-11-12T18:10:58.126Z,5.82
2022-11-12T18:13:27.903Z,5.70
2022-11-12T18:15:56.915Z,6.03
2022-11-12T18:18:24.566Z,5.20
2022-11-12T18:20:53.181Z,5.78
2022-11-12T18:23:21.924Z,5.20
2022-11-12T18:25:49.222Z,5.15
2022-11-12T18:28:16.599Z,5.03
2022-11-12T18:30:44.155Z,5.05
2022-11-12T18:33:11.488Z,5.43
2022-11-12T18:35:38.808Z,5.22
2022-11-12T18:38:06.217Z,5.30
2022-11-12T18:40:34.977Z,5.05
2022-11-12T18:43:02.285Z,5.47
2022-11-12T18:45:29.612Z,5.45
2022-11-12T18:47:57.024Z,5.35
2022-11-12T18:50:24.450Z,4.93
2022-11-12T18:52:51.753Z,5.60
2022-11-12T18:55:19.085Z,7.20
2022-11-12T18:57:47.756Z,5.93
2022-11-12T19:00:16.561Z,7.00
2022-11-12T19:02:44.068Z,7.10
2022-11-12T19:05:11.391Z,6.50
2022-11-12T19:07:38.757Z,7.15
2022-11-12T19:10:14.613Z,7.25
2022-11-12T19:12:42.688Z,7.03
2022-11-12T19:15:11.930Z,7.07
2022-11-12T19:17:39.292Z,7.30
2022-11-12T19:20:07.540Z,7.32
2022-11-12T19:22:34.867Z,6.55
2022-11-12T19:25:02.809Z,7.45
2022-11-12T19:27:30.119Z,7.13
2022-11-12T19:30:02.600Z,7.20
2022-11-12T19:32:32.213Z,7.03
2022-11-12T19:34:59.560Z,6.88
2022-11-12T19:37:33.359Z,7.47
2022-11-12T19:40:01.661Z,7.93
2022-11-12T19:42:29.022Z,7.22
2022-11-12T19:44:56.448Z,7.93
2022-11-12T19:47:23.818Z,7.68
2022-11-12T19:49:52.551Z,7.22
2022-11-12T19:52:19.925Z,7.60
2022-11-12T19:54:47.255Z,7.72
2022-11-12T19:57:14.556Z,7.15
2022-11-12T19:59:41.901Z,7.72
2022-11-12T20:02:11.817Z,7.15
2022-11-12T20:04:39.151Z,7.78
2022-11-12T20:07:08.152Z,7.00
2022-11-12T20:09:35.540Z,7.32
2022-11-12T20:12:02.903Z,7.00
2022-11-12T20:14:30.637Z,6.70
2022-11-12T20:16:57.966Z,6.68
2022-11-12T20:19:26.380Z,6.65
2022-11-12T20:21:53.721Z,6.32
2022-11-12T20:24:22.363Z,6.55
2022-11-12T20:26:49.763Z,7.35
2022-11-12T20:29:17.097Z,6.60
2022-11-12T20:31:44.428Z,7.07
2022-11-12T20:34:11.846Z,7.00
2022-11-12T20:36:39.192Z,7.90
2022-11-12T20:39:06.527Z,7.65
2022-11-12T20:41:35.213Z,7.43
2022-11-12T20:44:02.752Z,8.43
2022-11-12T20:46:30.136Z,7.35
2022-11-12T20:48:57.521Z,7.78
2022-11-12T20:51:25.904Z,8.90
2022-11-12T20:53:59.410Z,9.35
2022-11-12T20:56:28.027Z,8.63
2022-11-12T20:58:57.049Z,7.82
2022-11-12T21:01:25.171Z,7.93
2022-11-12T21:03:52.573Z,8.05
2022-11-12T21:06:23.045Z,7.60
2022-11-12T21:08:50.399Z,7.30
2022-11-12T21:11:18.540Z,8.23
2022-11-12T21:13:46.047Z,7.43
2022-11-12T21:16:14.844Z,7.55
2022-11-12T21:18:42.329Z,7.40
2022-11-12T21:21:10.786Z,7.10
2022-11-12T21:23:38.711Z,6.85
2022-11-12T21:26:07.344Z,7.47
2022-11-12T21:28:37.929Z,7.40
2022-11-12T21:31:06.095Z,8.15
2022-11-12T21:33:34.841Z,7.50
2022-11-12T21:36:02.241Z,7.57
2022-11-12T21:38:30.275Z,7.65
2022-11-12T21:41:04.962Z,7.13
2022-11-12T21:43:32.504Z,7.10
2022-11-12T21:46:00.529Z,7.38
2022-11-12T21:48:28.113Z,7.35
2022-11-12T21:50:57.072Z,7.65
2022-11-12T21:53:24.670Z,7.85
2022-11-12T21:55:51.996Z,7.18
2022-11-12T21:58:19.326Z,6.72
2022-11-12T22:00:46.735Z,6.97
2022-11-12T22:03:14.096Z,7.35
2022-11-12T22:05:41.505Z,7.43
2022-11-12T22:08:10.185Z,7.38
2022-11-12T22:10:37.516Z,8.00
2022-11-12T22:13:25.844Z,7.80
2022-11-12T22:15:52.645Z,8.13
2022-11-12T22:18:20.011Z,7.90
2022-11-12T22:20:56.031Z,7.85
2022-11-12T22:23:24.717Z,8.88
2022-11-12T22:25:52.228Z,8.90
2022-11-12T22:28:19.536Z,8.68
2022-11-12T22:30:46.864Z,8.65
2022-11-12T22:33:14.196Z,8.73
2022-11-12T22:35:41.493Z,8.38
2022-11-12T22:38:09.395Z,8.27
2022-11-12T22:40:38.133Z,7.85
2022-11-12T22:43:05.508Z,7.88
2022-11-12T22:45:32.840Z,7.43
2022-11-12T22:48:00.452Z,8.10
2022-11-12T22:50:27.847Z,7.60
2022-11-12T22:52:56.073Z,7.72
2022-11-12T22:55:23.411Z,7.90
2022-11-12T22:57:52.047Z,7.82
2022-11-12T23:00:19.869Z,7.80
2022-11-12T23:02:47.830Z,7.43
2022-11-12T23:05:15.415Z,7.60
2022-11-12T23:07:42.703Z,7.55
2022-11-12T23:10:10.456Z,8.52
2022-11-12T23:12:37.784Z,8.48
2022-11-12T23:15:07.519Z,8.18
2022-11-12T23:17:34.817Z,9.02
2022-11-12T23:20:02.134Z,8.93
2022-11-12T23:22:29.499Z,8.90
2022-11-12T23:24:56.809Z,9.00
2022-11-12T23:27:24.190Z,8.25
2022-11-12T23:29:51.490Z,8.13
2022-11-12T23:32:20.209Z,8.88
2022-11-12T23:34:47.488Z,8.70
2022-11-12T23:37:14.836Z,9.55
2022-11-12T23:39:42.158Z,9.15
2022-11-12T23:42:09.491Z,8.50
2022-11-12T23:44:36.807Z,8.23
2022-11-12T23:47:04.151Z,7.85
2022-11-12T23:49:32.829Z,8.48
2022-11-12T23:52:00.171Z,8.55
2022-11-12T23:54:27.509Z,8.00
2022-11-12T23:56:54.848Z,8.98
2022-11-12T23:59:22.203Z,7.72
